sensor_id;sensor_type;location;lat;lon;timestamp;P1;durP1;ratioP1;P2;durP2;ratioP2
39190;SDS011;24916;51.676;6.614;2023-12-14T00:02:20;1.60;;;1.23;;
39190;SDS011;24916;51.676;6.614;2023-12-14T00:04:45;1.58;;;1.20;;
39190;SDS011;24916;51.676;6.614;2023-12-14T00:07:10;1.58;;;1.30;;
39190;SDS011;24916;51.676;6.614;2023-12-14T00:09:39;1.50;;;1.23;;
39190;SDS011;24916;51.676;6.614;2023-12-14T00:12:04;1.48;;;1.17;;
39190;SDS011;24916;51.676;6.614;2023-12-14T00:14:30;3.25;;;1.33;;
39190;SDS011;24916;51.676;6.614;2023-12-14T00:16:55;1.80;;;1.40;;
39190;SDS011;24916;51.676;6.614;2023-12-14T00:19:23;2.65;;;1.40;;
39190;SDS011;24916;51.676;6.614;2023-12-14T00:21:48;1.52;;;1.23;;
39190;SDS011;24916;51.676;6.614;2023-12-14T00:24:14;1.88;;;1.20;;
39190;SDS011;24916;51.676;6.614;2023-12-14T00:26:39;1.50;;;1.20;;
39190;SDS011;24916;51.676;6.614;2023-12-14T00:29:04;1.48;;;1.10;;
39190;SDS011;24916;51.676;6.614;2023-12-14T00:31:29;1.50;;;1.10;;
39190;SDS011;24916;51.676;6.614;2023-12-14T00:33:55;1.20;;;1.00;;
39190;SDS011;24916;51.676;6.614;2023-12-14T00:36:20;1.52;;;1.30;;
39190;SDS011;24916;51.676;6.614;2023-12-14T00:38:45;1.60;;;1.10;;
39190;SDS011;24916;51.676;6.614;2023-12-14T00:41:11;1.30;;;1.20;;
39190;SDS011;24916;51.676;6.614;2023-12-14T00:43:36;1.35;;;1.05;;
39190;SDS011;24916;51.676;6.614;2023-12-14T00:46:03;1.50;;;1.38;;
39190;SDS011;24916;51.676;6.614;2023-12-14T00:48:28;1.30;;;1.20;;
39190;SDS011;24916;51.676;6.614;2023-12-14T00:50:53;1.58;;;1.25;;
39190;SDS011;24916;51.676;6.614;2023-12-14T00:53:19;1.30;;;1.10;;
39190;SDS011;24916;51.676;6.614;2023-12-14T00:55:44;3.83;;;1.27;;
39190;SDS011;24916;51.676;6.614;2023-12-14T00:58:10;1.20;;;1.10;;
39190;SDS011;24916;51.676;6.614;2023-12-14T01:00:38;2.00;;;1.15;;
39190;SDS011;24916;51.676;6.614;2023-12-14T01:03:03;2.30;;;1.40;;
39190;SDS011;24916;51.676;6.614;2023-12-14T01:05:28;0.90;;;0.90;;
39190;SDS011;24916;51.676;6.614;2023-12-14T01:07:53;1.83;;;1.20;;
39190;SDS011;24916;51.676;6.614;2023-12-14T01:10:19;1.63;;;1.30;;
39190;SDS011;24916;51.676;6.614;2023-12-14T01:12:44;1.20;;;1.08;;
39190;SDS011;24916;51.676;6.614;2023-12-14T01:15:09;1.58;;;1.30;;
39190;SDS011;24916;51.676;6.614;2023-12-14T01:17:34;1.45;;;1.10;;
39190;SDS011;24916;51.676;6.614;2023-12-14T01:20:03;1.83;;;1.30;;
39190;SDS011;24916;51.676;6.614;2023-12-14T01:22:29;1.65;;;1.20;;
39190;SDS011;24916;51.676;6.614;2023-12-14T01:24:54;1.30;;;1.00;;
39190;SDS011;24916;51.676;6.614;2023-12-14T01:27:20;2.80;;;1.23;;
39190;SDS011;24916;51.676;6.614;2023-12-14T01:29:45;1.73;;;1.40;;
39190;SDS011;24916;51.676;6.614;2023-12-14T01:32:10;1.17;;;1.00;;
39190;SDS011;24916;51.676;6.614;2023-12-14T01:34:35;1.50;;;1.20;;
39190;SDS011;24916;51.676;6.614;2023-12-14T01:37:00;1.20;;;1.02;;
39190;SDS011;24916;51.676;6.614;2023-12-14T01:39:26;2.00;;;1.30;;
39190;SDS011;24916;51.676;6.614;2023-12-14T01:41:51;1.33;;;1.03;;
39190;SDS011;24916;51.676;6.614;2023-12-14T01:44:16;1.77;;;1.20;;
39190;SDS011;24916;51.676;6.614;2023-12-14T01:46:41;1.40;;;1.10;;
39190;SDS011;24916;51.676;6.614;2023-12-14T01:49:06;1.52;;;1.20;;
39190;SDS011;24916;51.676;6.614;2023-12-14T01:51:32;1.15;;;1.05;;
39190;SDS011;24916;51.676;6.614;2023-12-14T01:53:58;1.20;;;1.02;;
39190;SDS011;24916;51.676;6.614;2023-12-14T01:56:24;2.20;;;1.17;;
39190;SDS011;24916;51.676;6.614;2023-12-14T01:58:49;1.52;;;1.02;;
39190;SDS011;24916;51.676;6.614;2023-12-14T02:03:44;1.67;;;1.10;;
39190;SDS011;24916;51.676;6.614;2023-12-14T02:06:10;1.33;;;1.20;;
39190;SDS011;24916;51.676;6.614;2023-12-14T02:08:36;1.10;;;1.00;;
39190;SDS011;24916;51.676;6.614;2023-12-14T02:11:01;1.13;;;0.88;;
39190;SDS011;24916;51.676;6.614;2023-12-14T02:13:27;1.50;;;1.20;;
39190;SDS011;24916;51.676;6.614;2023-12-14T02:15:52;0.95;;;0.90;;
39190;SDS011;24916;51.676;6.614;2023-12-14T02:18:18;1.13;;;1.00;;
39190;SDS011;24916;51.676;6.614;2023-12-14T02:20:44;1.25;;;1.00;;
39190;SDS011;24916;51.676;6.614;2023-12-14T02:23:09;1.60;;;1.20;;
39190;SDS011;24916;51.676;6.614;2023-12-14T02:25:34;1.20;;;1.10;;
39190;SDS011;24916;51.676;6.614;2023-12-14T02:27:59;1.30;;;1.10;;
39190;SDS011;24916;51.676;6.614;2023-12-14T02:30:24;1.35;;;1.17;;
39190;SDS011;24916;51.676;6.614;2023-12-14T02:32:50;1.38;;;1.10;;
39190;SDS011;24916;51.676;6.614;2023-12-14T02:35:15;1.20;;;0.90;;
39190;SDS011;24916;51.676;6.614;2023-12-14T02:37:40;1.73;;;1.27;;
39190;SDS011;24916;51.676;6.614;2023-12-14T02:40:06;1.67;;;1.10;;
39190;SDS011;24916;51.676;6.614;2023-12-14T02:42:32;1.33;;;0.90;;
39190;SDS011;24916;51.676;6.614;2023-12-14T02:44:57;1.33;;;1.00;;
39190;SDS011;24916;51.676;6.614;2023-12-14T02:47:23;1.38;;;1.05;;
39190;SDS011;24916;51.676;6.614;2023-12-14T02:49:48;1.52;;;1.10;;
39190;SDS011;24916;51.676;6.614;2023-12-14T02:52:14;1.48;;;1.30;;
39190;SDS011;24916;51.676;6.614;2023-12-14T02:54:39;1.30;;;1.20;;
39190;SDS011;24916;51.676;6.614;2023-12-14T02:57:05;2.42;;;1.10;;
39190;SDS011;24916;51.676;6.614;2023-12-14T02:59:30;1.20;;;1.10;;
39190;SDS011;24916;51.676;6.614;2023-12-14T03:01:55;1.52;;;1.20;;
39190;SDS011;24916;51.676;6.614;2023-12-14T03:04:21;2.15;;;1.30;;
39190;SDS011;24916;51.676;6.614;2023-12-14T03:06:46;1.20;;;1.00;;
39190;SDS011;24916;51.676;6.614;2023-12-14T03:09:11;1.50;;;1.10;;
39190;SDS011;24916;51.676;6.614;2023-12-14T03:11:36;1.25;;;1.10;;
39190;SDS011;24916;51.676;6.614;2023-12-14T03:14:02;1.30;;;1.20;;
39190;SDS011;24916;51.676;6.614;2023-12-14T03:16:27;1.65;;;1.10;;
39190;SDS011;24916;51.676;6.614;2023-12-14T03:18:52;1.40;;;1.30;;
39190;SDS011;24916;51.676;6.614;2023-12-14T03:21:18;1.70;;;1.30;;
39190;SDS011;24916;51.676;6.614;2023-12-14T03:23:44;1.20;;;1.10;;
39190;SDS011;24916;51.676;6.614;2023-12-14T03:26:10;1.77;;;1.40;;
39190;SDS011;24916;51.676;6.614;2023-12-14T03:28:35;1.73;;;1.33;;
39190;SDS011;24916;51.676;6.614;2023-12-14T03:31:00;1.50;;;1.20;;
39190;SDS011;24916;51.676;6.614;2023-12-14T03:33:25;1.35;;;1.23;;
39190;SDS011;24916;51.676;6.614;2023-12-14T03:35:51;1.38;;;1.20;;
39190;SDS011;24916;51.676;6.614;2023-12-14T03:38:16;1.33;;;1.20;;
39190;SDS011;24916;51.676;6.614;2023-12-14T03:40:41;1.52;;;1.05;;
39190;SDS011;24916;51.676;6.614;2023-12-14T03:43:06;2.03;;;1.30;;
39190;SDS011;24916;51.676;6.614;2023-12-14T03:45:32;1.10;;;1.00;;
39190;SDS011;24916;51.676;6.614;2023-12-14T03:47:57;1.63;;;1.30;;
39190;SDS011;24916;51.676;6.614;2023-12-14T03:50:22;1.85;;;1.50;;
39190;SDS011;24916;51.676;6.614;2023-12-14T03:52:47;1.77;;;1.40;;
39190;SDS011;24916;51.676;6.614;2023-12-14T03:55:13;2.10;;;1.48;;
39190;SDS011;24916;51.676;6.614;2023-12-14T03:57:40;1.60;;;1.50;;
39190;SDS011;24916;51.676;6.614;2023-12-14T04:00:09;1.27;;;1.17;;
39190;SDS011;24916;51.676;6.614;2023-12-14T04:02:34;1.77;;;1.30;;
39190;SDS011;24916;51.676;6.614;2023-12-14T04:04:59;1.33;;;1.13;;
39190;SDS011;24916;51.676;6.614;2023-12-14T04:07:25;1.75;;;1.27;;
39190;SDS011;24916;51.676;6.614;2023-12-14T04:09:50;2.25;;;1.58;;
39190;SDS011;24916;51.676;6.614;2023-12-14T04:12:15;1.40;;;1.30;;
39190;SDS011;24916;51.676;6.614;2023-12-14T04:14:40;1.55;;;1.45;;
39190;SDS011;24916;51.676;6.614;2023-12-14T04:17:07;2.13;;;1.60;;
39190;SDS011;24916;51.676;6.614;2023-12-14T04:19:32;1.27;;;1.17;;
39190;SDS011;24916;51.676;6.614;2023-12-14T04:21:57;1.73;;;1.48;;
39190;SDS011;24916;51.676;6.614;2023-12-14T04:24:23;1.70;;;1.30;;
39190;SDS011;24916;51.676;6.614;2023-12-14T04:26:48;1.20;;;1.10;;
39190;SDS011;24916;51.676;6.614;2023-12-14T04:29:13;1.50;;;1.40;;
39190;SDS011;24916;51.676;6.614;2023-12-14T04:31:39;1.30;;;1.20;;
39190;SDS011;24916;51.676;6.614;2023-12-14T04:34:04;1.30;;;1.20;;
39190;SDS011;24916;51.676;6.614;2023-12-14T04:36:30;1.55;;;1.40;;
39190;SDS011;24916;51.676;6.614;2023-12-14T04:38:55;1.23;;;1.13;;
39190;SDS011;24916;51.676;6.614;2023-12-14T04:41:20;1.42;;;1.33;;
39190;SDS011;24916;51.676;6.614;2023-12-14T04:43:45;1.58;;;1.48;;
39190;SDS011;24916;51.676;6.614;2023-12-14T04:46:11;1.35;;;1.25;;
39190;SDS011;24916;51.676;6.614;2023-12-14T04:48:36;1.40;;;1.23;;
39190;SDS011;24916;51.676;6.614;2023-12-14T04:51:01;1.67;;;1.42;;
39190;SDS011;24916;51.676;6.614;2023-12-14T04:53:26;1.65;;;1.40;;
39190;SDS011;24916;51.676;6.614;2023-12-14T04:55:51;2.33;;;1.70;;
39190;SDS011;24916;51.676;6.614;2023-12-14T04:58:17;1.60;;;1.50;;
39190;SDS011;24916;51.676;6.614;2023-12-14T05:00:43;1.95;;;1.20;;
39190;SDS011;24916;51.676;6.614;2023-12-14T05:03:08;1.50;;;1.38;;
39190;SDS011;24916;51.676;6.614;2023-12-14T05:05:34;1.50;;;1.40;;
39190;SDS011;24916;51.676;6.614;2023-12-14T05:07:59;1.50;;;1.40;;
39190;SDS011;24916;51.676;6.614;2023-12-14T05:10:24;1.70;;;1.50;;
39190;SDS011;24916;51.676;6.614;2023-12-14T05:12:49;1.50;;;1.35;;
39190;SDS011;24916;51.676;6.614;2023-12-14T05:15:15;1.77;;;1.50;;
39190;SDS011;24916;51.676;6.614;2023-12-14T05:17:40;1.40;;;1.30;;
39190;SDS011;24916;51.676;6.614;2023-12-14T05:20:08;2.97;;;1.35;;
39190;SDS011;24916;51.676;6.614;2023-12-14T05:22:34;1.20;;;1.10;;
39190;SDS011;24916;51.676;6.614;2023-12-14T05:24:59;1.58;;;1.40;;
39190;SDS011;24916;51.676;6.614;2023-12-14T05:27:24;1.90;;;1.60;;
39190;SDS011;24916;51.676;6.614;2023-12-14T05:29:50;1.70;;;1.52;;
39190;SDS011;24916;51.676;6.614;2023-12-14T05:32:15;1.58;;;1.48;;
39190;SDS011;24916;51.676;6.614;2023-12-14T05:34:41;1.70;;;1.60;;
39190;SDS011;24916;51.676;6.614;2023-12-14T05:37:07;1.50;;;1.40;;
39190;SDS011;24916;51.676;6.614;2023-12-14T05:39:33;1.90;;;1.75;;
39190;SDS011;24916;51.676;6.614;2023-12-14T05:41:58;2.03;;;1.42;;
39190;SDS011;24916;51.676;6.614;2023-12-14T05:44:25;1.70;;;1.58;;
39190;SDS011;24916;51.676;6.614;2023-12-14T05:46:50;1.40;;;1.30;;
39190;SDS011;24916;51.676;6.614;2023-12-14T05:49:16;1.58;;;1.48;;
39190;SDS011;24916;51.676;6.614;2023-12-14T05:51:41;2.15;;;1.75;;
39190;SDS011;24916;51.676;6.614;2023-12-14T05:54:07;1.55;;;1.45;;
39190;SDS011;24916;51.676;6.614;2023-12-14T05:56:32;1.80;;;1.70;;
39190;SDS011;24916;51.676;6.614;2023-12-14T05:58:57;1.52;;;1.42;;
39190;SDS011;24916;51.676;6.614;2023-12-14T06:01:23;1.60;;;1.50;;
39190;SDS011;24916;51.676;6.614;2023-12-14T06:03:48;1.73;;;1.63;;
39190;SDS011;24916;51.676;6.614;2023-12-14T06:06:14;1.85;;;1.58;;
39190;SDS011;24916;51.676;6.614;2023-12-14T06:08:39;1.80;;;1.60;;
39190;SDS011;24916;51.676;6.614;2023-12-14T06:11:05;1.63;;;1.52;;
39190;SDS011;24916;51.676;6.614;2023-12-14T06:13:32;1.40;;;1.30;;
39190;SDS011;24916;51.676;6.614;2023-12-14T06:15:57;1.80;;;1.52;;
39190;SDS011;24916;51.676;6.614;2023-12-14T06:18:22;1.92;;;1.67;;
39190;SDS011;24916;51.676;6.614;2023-12-14T06:20:47;1.70;;;1.58;;
39190;SDS011;24916;51.676;6.614;2023-12-14T06:23:13;1.90;;;1.70;;
39190;SDS011;24916;51.676;6.614;2023-12-14T06:25:39;1.70;;;1.50;;
39190;SDS011;24916;51.676;6.614;2023-12-14T06:28:04;2.38;;;1.70;;
39190;SDS011;24916;51.676;6.614;2023-12-14T06:30:29;1.80;;;1.60;;
39190;SDS011;24916;51.676;6.614;2023-12-14T06:32:54;2.08;;;1.60;;
39190;SDS011;24916;51.676;6.614;2023-12-14T06:35:21;1.73;;;1.63;;
39190;SDS011;24916;51.676;6.614;2023-12-14T06:37:46;1.92;;;1.77;;
39190;SDS011;24916;51.676;6.614;2023-12-14T06:40:11;1.90;;;1.73;;
39190;SDS011;24916;51.676;6.614;2023-12-14T06:42:37;1.77;;;1.60;;
39190;SDS011;24916;51.676;6.614;2023-12-14T06:45:02;1.77;;;1.48;;
39190;SDS011;24916;51.676;6.614;2023-12-14T06:47:28;1.75;;;1.60;;
39190;SDS011;24916;51.676;6.614;2023-12-14T06:49:53;2.97;;;1.65;;
39190;SDS011;24916;51.676;6.614;2023-12-14T06:52:18;1.80;;;1.50;;
39190;SDS011;24916;51.676;6.614;2023-12-14T06:54:44;3.17;;;1.63;;
39190;SDS011;24916;51.676;6.614;2023-12-14T06:57:09;2.55;;;1.80;;
39190;SDS011;24916;51.676;6.614;2023-12-14T06:59:34;1.55;;;1.40;;
39190;SDS011;24916;51.676;6.614;2023-12-14T07:02:00;1.60;;;1.50;;
39190;SDS011;24916;51.676;6.614;2023-12-14T07:04:25;1.80;;;1.70;;
39190;SDS011;24916;51.676;6.614;2023-12-14T07:06:53;2.13;;;1.70;;
39190;SDS011;24916;51.676;6.614;2023-12-14T07:09:18;2.15;;;1.55;;
39190;SDS011;24916;51.676;6.614;2023-12-14T07:11:44;3.25;;;1.60;;
39190;SDS011;24916;51.676;6.614;2023-12-14T07:14:09;1.55;;;1.45;;
39190;SDS011;24916;51.676;6.614;2023-12-14T07:16:34;1.52;;;1.42;;
39190;SDS011;24916;51.676;6.614;2023-12-14T07:19:00;1.50;;;1.40;;
39190;SDS011;24916;51.676;6.614;2023-12-14T07:21:25;2.35;;;1.63;;
39190;SDS011;24916;51.676;6.614;2023-12-14T07:23:50;2.03;;;1.60;;
39190;SDS011;24916;51.676;6.614;2023-12-14T07:26:15;1.83;;;1.65;;
39190;SDS011;24916;51.676;6.614;2023-12-14T07:28:41;1.80;;;1.63;;
39190;SDS011;24916;51.676;6.614;2023-12-14T07:31:06;1.60;;;1.50;;
39190;SDS011;24916;51.676;6.614;2023-12-14T07:33:32;1.85;;;1.75;;
39190;SDS011;24916;51.676;6.614;2023-12-14T07:35:57;1.40;;;1.30;;
39190;SDS011;24916;51.676;6.614;2023-12-14T07:38:22;1.85;;;1.50;;
39190;SDS011;24916;51.676;6.614;2023-12-14T07:40:47;2.20;;;1.67;;
39190;SDS011;24916;51.676;6.614;2023-12-14T07:43:15;1.70;;;1.60;;
39190;SDS011;24916;51.676;6.614;2023-12-14T07:45:40;2.80;;;1.42;;
39190;SDS011;24916;51.676;6.614;2023-12-14T07:48:05;1.88;;;1.70;;
39190;SDS011;24916;51.676;6.614;2023-12-14T07:50:30;3.67;;;1.60;;
39190;SDS011;24916;51.676;6.614;2023-12-14T07:52:56;1.50;;;1.40;;
39190;SDS011;24916;51.676;6.614;2023-12-14T07:55:21;2.78;;;1.70;;
39190;SDS011;24916;51.676;6.614;2023-12-14T07:57:46;2.17;;;1.50;;
39190;SDS011;24916;51.676;6.614;2023-12-14T08:00:12;2.58;;;1.63;;
39190;SDS011;24916;51.676;6.614;2023-12-14T08:02:37;1.90;;;1.70;;
39190;SDS011;24916;51.676;6.614;2023-12-14T08:05:03;2.72;;;1.60;;
39190;SDS011;24916;51.676;6.614;2023-12-14T08:07:29;1.95;;;1.70;;
39190;SDS011;24916;51.676;6.614;2023-12-14T08:09:55;1.60;;;1.40;;
39190;SDS011;24916;51.676;6.614;2023-12-14T08:12:20;1.73;;;1.63;;
39190;SDS011;24916;51.676;6.614;2023-12-14T08:14:46;1.67;;;1.40;;
39190;SDS011;24916;51.676;6.614;2023-12-14T08:17:13;1.70;;;1.48;;
39190;SDS011;24916;51.676;6.614;2023-12-14T08:19:39;1.60;;;1.50;;
39190;SDS011;24916;51.676;6.614;2023-12-14T08:22:05;2.35;;;1.60;;
39190;SDS011;24916;51.676;6.614;2023-12-14T08:24:30;2.42;;;1.40;;
39190;SDS011;24916;51.676;6.614;2023-12-14T08:26:55;3.63;;;1.30;;
39190;SDS011;24916;51.676;6.614;2023-12-14T08:29:20;2.50;;;1.50;;
39190;SDS011;24916;51.676;6.614;2023-12-14T08:31:46;1.73;;;1.52;;
39190;SDS011;24916;51.676;6.614;2023-12-14T08:34:11;2.22;;;1.63;;
39190;SDS011;24916;51.676;6.614;2023-12-14T08:36:37;2.30;;;1.38;;
39190;SDS011;24916;51.676;6.614;2023-12-14T08:39:02;1.92;;;1.50;;
39190;SDS011;24916;51.676;6.614;2023-12-14T08:41:27;1.88;;;1.50;;
39190;SDS011;24916;51.676;6.614;2023-12-14T08:43:52;3.40;;;1.50;;
39190;SDS011;24916;51.676;6.614;2023-12-14T08:46:18;1.50;;;1.33;;
39190;SDS011;24916;51.676;6.614;2023-12-14T08:48:43;1.80;;;1.48;;
39190;SDS011;24916;51.676;6.614;2023-12-14T08:51:08;2.00;;;1.42;;
39190;SDS011;24916;51.676;6.614;2023-12-14T08:53:34;1.50;;;1.38;;
39190;SDS011;24916;51.676;6.614;2023-12-14T08:55:59;1.88;;;1.50;;
39190;SDS011;24916;51.676;6.614;2023-12-14T08:58:24;1.25;;;1.15;;
39190;SDS011;24916;51.676;6.614;2023-12-14T09:00:50;1.92;;;1.50;;
39190;SDS011;24916;51.676;6.614;2023-12-14T09:03:18;2.22;;;1.80;;
39190;SDS011;24916;51.676;6.614;2023-12-14T09:05:44;3.95;;;2.70;;
39190;SDS011;24916;51.676;6.614;2023-12-14T09:08:10;4.28;;;3.40;;
39190;SDS011;24916;51.676;6.614;2023-12-14T09:10:35;5.43;;;3.53;;
39190;SDS011;24916;51.676;6.614;2023-12-14T09:13:00;5.47;;;5.05;;
39190;SDS011;24916;51.676;6.614;2023-12-14T09:15:29;6.38;;;5.82;;
39190;SDS011;24916;51.676;6.614;2023-12-14T09:17:54;6.60;;;4.57;;
39190;SDS011;24916;51.676;6.614;2023-12-14T09:20:19;4.93;;;4.45;;
39190;SDS011;24916;51.676;6.614;2023-12-14T09:22:45;6.13;;;4.10;;
39190;SDS011;24916;51.676;6.614;2023-12-14T09:25:10;4.60;;;3.90;;
39190;SDS011;24916;51.676;6.614;2023-12-14T09:27:35;4.78;;;3.55;;
39190;SDS011;24916;51.676;6.614;2023-12-14T09:30:01;6.72;;;3.53;;
39190;SDS011;24916;51.676;6.614;2023-12-14T09:32:26;4.13;;;2.92;;
39190;SDS011;24916;51.676;6.614;2023-12-14T09:34:51;6.15;;;3.30;;
39190;SDS011;24916;51.676;6.614;2023-12-14T09:37:17;3.67;;;2.85;;
39190;SDS011;24916;51.676;6.614;2023-12-14T09:39:42;3.33;;;2.80;;
39190;SDS011;24916;51.676;6.614;2023-12-14T09:42:07;3.30;;;2.60;;
39190;SDS011;24916;51.676;6.614;2023-12-14T09:44:33;3.03;;;2.30;;
39190;SDS011;24916;51.676;6.614;2023-12-14T09:47:00;3.20;;;2.33;;
39190;SDS011;24916;51.676;6.614;2023-12-14T09:49:25;4.22;;;2.33;;
39190;SDS011;24916;51.676;6.614;2023-12-14T09:51:54;3.88;;;2.38;;
39190;SDS011;24916;51.676;6.614;2023-12-14T09:54:19;2.78;;;1.92;;
39190;SDS011;24916;51.676;6.614;2023-12-14T09:56:45;3.05;;;2.10;;
39190;SDS011;24916;51.676;6.614;2023-12-14T09:59:11;2.65;;;1.88;;
39190;SDS011;24916;51.676;6.614;2023-12-14T10:01:36;2.42;;;1.92;;
39190;SDS011;24916;51.676;6.614;2023-12-14T10:04:06;2.67;;;1.65;;
39190;SDS011;24916;51.676;6.614;2023-12-14T10:06:32;2.28;;;1.83;;
39190;SDS011;24916;51.676;6.614;2023-12-14T10:08:58;3.65;;;1.70;;
39190;SDS011;24916;51.676;6.614;2023-12-14T10:11:23;3.20;;;1.70;;
39190;SDS011;24916;51.676;6.614;2023-12-14T10:13:48;2.55;;;1.60;;
39190;SDS011;24916;51.676;6.614;2023-12-14T10:16:25;1.95;;;1.40;;
39190;SDS011;24916;51.676;6.614;2023-12-14T10:18:52;2.28;;;1.55;;
39190;SDS011;24916;51.676;6.614;2023-12-14T10:21:17;1.50;;;1.27;;
39190;SDS011;24916;51.676;6.614;2023-12-14T10:23:44;1.75;;;1.35;;
39190;SDS011;24916;51.676;6.614;2023-12-14T10:26:11;1.98;;;1.52;;
39190;SDS011;24916;51.676;6.614;2023-12-14T10:28:37;1.92;;;1.30;;
39190;SDS011;24916;51.676;6.614;2023-12-14T10:31:04;1.70;;;1.20;;
39190;SDS011;24916;51.676;6.614;2023-12-14T10:33:30;2.40;;;1.25;;
39190;SDS011;24916;51.676;6.614;2023-12-14T10:35:55;1.50;;;1.30;;
39190;SDS011;24916;51.676;6.614;2023-12-14T10:38:21;1.50;;;1.30;;
39190;SDS011;24916;51.676;6.614;2023-12-14T10:40:46;2.08;;;1.30;;
39190;SDS011;24916;51.676;6.614;2023-12-14T10:43:12;3.53;;;1.48;;
39190;SDS011;24916;51.676;6.614;2023-12-14T10:45:38;1.52;;;1.25;;
39190;SDS011;24916;51.676;6.614;2023-12-14T10:48:04;2.13;;;1.17;;
39190;SDS011;24916;51.676;6.614;2023-12-14T10:50:29;1.95;;;1.20;;
39190;SDS011;24916;51.676;6.614;2023-12-14T10:52:55;2.72;;;1.13;;
39190;SDS011;24916;51.676;6.614;2023-12-14T10:55:22;2.42;;;1.50;;
39190;SDS011;24916;51.676;6.614;2023-12-14T10:57:51;1.58;;;1.10;;
39190;SDS011;24916;51.676;6.614;2023-12-14T11:00:17;1.23;;;1.10;;
39190;SDS011;24916;51.676;6.614;2023-12-14T11:02:44;1.92;;;0.80;;
39190;SDS011;24916;51.676;6.614;2023-12-14T11:05:13;1.25;;;1.00;;
39190;SDS011;24916;51.676;6.614;2023-12-14T11:07:44;2.03;;;1.30;;
39190;SDS011;24916;51.676;6.614;2023-12-14T11:10:10;1.45;;;1.08;;
39190;SDS011;24916;51.676;6.614;2023-12-14T11:12:36;1.55;;;1.20;;
39190;SDS011;24916;51.676;6.614;2023-12-14T11:15:02;1.10;;;0.98;;
39190;SDS011;24916;51.676;6.614;2023-12-14T11:17:28;1.10;;;1.00;;
39190;SDS011;24916;51.676;6.614;2023-12-14T11:19:54;1.33;;;0.93;;
39190;SDS011;24916;51.676;6.614;2023-12-14T11:22:23;2.30;;;0.90;;
39190;SDS011;24916;51.676;6.614;2023-12-14T11:24:55;1.10;;;1.00;;
39190;SDS011;24916;51.676;6.614;2023-12-14T11:27:30;1.42;;;1.10;;
39190;SDS011;24916;51.676;6.614;2023-12-14T11:29:56;1.73;;;1.15;;
39190;SDS011;24916;51.676;6.614;2023-12-14T11:32:21;2.05;;;1.30;;
39190;SDS011;24916;51.676;6.614;2023-12-14T11:34:46;1.17;;;0.80;;
39190;SDS011;24916;51.676;6.614;2023-12-14T11:37:12;1.30;;;1.10;;
39190;SDS011;24916;51.676;6.614;2023-12-14T11:39:37;1.92;;;1.00;;
39190;SDS011;24916;51.676;6.614;2023-12-14T11:42:03;1.30;;;1.10;;
39190;SDS011;24916;51.676;6.614;2023-12-14T11:44:29;1.27;;;1.00;;
39190;SDS011;24916;51.676;6.614;2023-12-14T11:46:55;1.63;;;1.20;;
39190;SDS011;24916;51.676;6.614;2023-12-14T11:49:23;1.20;;;0.98;;
39190;SDS011;24916;51.676;6.614;2023-12-14T11:51:52;1.25;;;1.00;;
39190;SDS011;24916;51.676;6.614;2023-12-14T11:54:18;1.35;;;1.20;;
39190;SDS011;24916;51.676;6.614;2023-12-14T11:56:49;1.83;;;1.13;;
39190;SDS011;24916;51.676;6.614;2023-12-14T11:59:15;2.05;;;0.98;;
39190;SDS011;24916;51.676;6.614;2023-12-14T12:01:53;1.38;;;1.02;;
39190;SDS011;24916;51.676;6.614;2023-12-14T12:04:18;3.35;;;0.90;;
39190;SDS011;24916;51.676;6.614;2023-12-14T12:06:44;3.05;;;1.17;;
39190;SDS011;24916;51.676;6.614;2023-12-14T12:09:09;4.88;;;1.25;;
39190;SDS011;24916;51.676;6.614;2023-12-14T12:11:35;5.32;;;1.20;;
39190;SDS011;24916;51.676;6.614;2023-12-14T12:14:01;3.60;;;1.38;;
39190;SDS011;24916;51.676;6.614;2023-12-14T12:16:26;3.17;;;1.20;;
39190;SDS011;24916;51.676;6.614;2023-12-14T12:18:51;1.65;;;1.13;;
39190;SDS011;24916;51.676;6.614;2023-12-14T12:21:17;1.90;;;1.10;;
39190;SDS011;24916;51.676;6.614;2023-12-14T12:23:42;1.88;;;1.27;;
39190;SDS011;24916;51.676;6.614;2023-12-14T12:26:07;3.53;;;1.20;;
39190;SDS011;24916;51.676;6.614;2023-12-14T12:28:33;3.53;;;1.20;;
39190;SDS011;24916;51.676;6.614;2023-12-14T12:30:58;3.35;;;1.25;;
39190;SDS011;24916;51.676;6.614;2023-12-14T12:33:24;3.15;;;1.50;;
39190;SDS011;24916;51.676;6.614;2023-12-14T12:35:50;1.88;;;1.02;;
39190;SDS011;24916;51.676;6.614;2023-12-14T12:38:16;2.53;;;1.10;;
39190;SDS011;24916;51.676;6.614;2023-12-14T12:40:42;5.57;;;1.25;;
39190;SDS011;24916;51.676;6.614;2023-12-14T12:43:07;4.35;;;1.20;;
39190;SDS011;24916;51.676;6.614;2023-12-14T12:45:32;2.90;;;1.25;;
39190;SDS011;24916;51.676;6.614;2023-12-14T12:47:58;3.25;;;1.00;;
39190;SDS011;24916;51.676;6.614;2023-12-14T12:50:23;3.08;;;1.30;;
39190;SDS011;24916;51.676;6.614;2023-12-14T12:52:49;1.80;;;1.08;;
39190;SDS011;24916;51.676;6.614;2023-12-14T12:55:14;1.77;;;1.10;;
39190;SDS011;24916;51.676;6.614;2023-12-14T12:57:39;2.80;;;1.13;;
39190;SDS011;24916;51.676;6.614;2023-12-14T13:00:06;4.07;;;1.25;;
39190;SDS011;24916;51.676;6.614;2023-12-14T13:02:36;2.33;;;1.10;;
39190;SDS011;24916;51.676;6.614;2023-12-14T13:05:01;2.67;;;1.05;;
39190;SDS011;24916;51.676;6.614;2023-12-14T13:07:26;2.72;;;1.10;;
39190;SDS011;24916;51.676;6.614;2023-12-14T13:09:52;3.08;;;1.02;;
39190;SDS011;24916;51.676;6.614;2023-12-14T13:12:17;1.92;;;1.30;;
39190;SDS011;24916;51.676;6.614;2023-12-14T13:14:42;2.08;;;1.10;;
39190;SDS011;24916;51.676;6.614;2023-12-14T13:17:07;1.30;;;1.00;;
39190;SDS011;24916;51.676;6.614;2023-12-14T13:19:33;1.73;;;1.10;;
39190;SDS011;24916;51.676;6.614;2023-12-14T13:21:58;2.88;;;0.88;;
39190;SDS011;24916;51.676;6.614;2023-12-14T13:24:24;1.35;;;0.90;;
39190;SDS011;24916;51.676;6.614;2023-12-14T13:26:50;3.03;;;1.20;;
39190;SDS011;24916;51.676;6.614;2023-12-14T13:29:15;2.03;;;1.00;;
39190;SDS011;24916;51.676;6.614;2023-12-14T13:31:41;6.75;;;1.30;;
39190;SDS011;24916;51.676;6.614;2023-12-14T13:34:06;1.15;;;1.05;;
39190;SDS011;24916;51.676;6.614;2023-12-14T13:36:31;2.70;;;1.10;;
39190;SDS011;24916;51.676;6.614;2023-12-14T13:38:56;1.50;;;1.13;;
39190;SDS011;24916;51.676;6.614;2023-12-14T13:41:22;2.22;;;0.95;;
39190;SDS011;24916;51.676;6.614;2023-12-14T13:43:47;1.25;;;0.80;;
39190;SDS011;24916;51.676;6.614;2023-12-14T13:46:12;3.58;;;1.08;;
39190;SDS011;24916;51.676;6.614;2023-12-14T13:48:37;2.55;;;0.90;;
39190;SDS011;24916;51.676;6.614;2023-12-14T13:51:04;1.30;;;1.00;;
39190;SDS011;24916;51.676;6.614;2023-12-14T13:53:29;3.15;;;1.00;;
39190;SDS011;24916;51.676;6.614;2023-12-14T13:55:55;1.80;;;1.08;;
39190;SDS011;24916;51.676;6.614;2023-12-14T13:58:20;2.47;;;1.10;;
39190;SDS011;24916;51.676;6.614;2023-12-14T14:00:46;2.17;;;1.02;;
39190;SDS011;24916;51.676;6.614;2023-12-14T14:03:11;4.35;;;1.00;;
39190;SDS011;24916;51.676;6.614;2023-12-14T14:05:37;0.80;;;0.80;;
39190;SDS011;24916;51.676;6.614;2023-12-14T14:08:02;1.95;;;1.05;;
39190;SDS011;24916;51.676;6.614;2023-12-14T14:10:28;2.63;;;1.10;;
39190;SDS011;24916;51.676;6.614;2023-12-14T14:12:53;0.90;;;0.80;;
39190;SDS011;24916;51.676;6.614;2023-12-14T14:15:19;1.45;;;1.15;;
39190;SDS011;24916;51.676;6.614;2023-12-14T14:17:47;1.60;;;0.98;;
39190;SDS011;24916;51.676;6.614;2023-12-14T14:20:17;1.67;;;0.98;;
39190;SDS011;24916;51.676;6.614;2023-12-14T14:22:42;1.38;;;1.17;;
39190;SDS011;24916;51.676;6.614;2023-12-14T14:25:07;2.55;;;0.98;;
39190;SDS011;24916;51.676;6.614;2023-12-14T14:27:33;2.03;;;1.20;;
39190;SDS011;24916;51.676;6.614;2023-12-14T14:29:58;1.60;;;0.82;;
39190;SDS011;24916;51.676;6.614;2023-12-14T14:32:23;1.50;;;0.90;;
39190;SDS011;24916;51.676;6.614;2023-12-14T14:34:50;2.45;;;1.00;;
39190;SDS011;24916;51.676;6.614;2023-12-14T14:37:15;1.83;;;1.10;;
39190;SDS011;24916;51.676;6.614;2023-12-14T14:39:41;1.75;;;1.00;;
39190;SDS011;24916;51.676;6.614;2023-12-14T14:42:08;0.82;;;0.70;;